X  Chiuso Dati meteorologici dell'aviazione (METAR)     LIRA Ciampino–G. B. Pastine International Airport
Temperatura
15°C Temperatura
4°C Punto di rugiada
48% Umidità



Vento
24 KM/H
15 MPH
7 M/S
13 KTS



240°
OSO
Condizioni attuali

Chiaro Thunderstorm, Pioggia Chiaro Thunderstorm, Pioggia
Pressione 1001.92 (hPa) - 29.59 (inHg)
Visibilità 6.2 (miglio) - 10 (km)
Aeroporto
Aeroporto-code LIRA

Posizione: Ciampino–G. B. Pastine International Airport
Distanza: 6 (km)

Metar:
LIRA 261350Z 24013KT 9999 -TSRA FEW020CB SCT030 15/04 Q1002

Ore: 26-09-2020 15:50 CEST